sensor_id;sensor_type;location;lat;lon;timestamp;temperature;humidity
14875;DHT22;7529;48.170;17.138;2022-08-20T10:47:19;28.00;45.50
14875;DHT22;7529;48.170;17.138;2022-08-20T10:51:38;32.70;49.60
14875;DHT22;7529;48.170;17.138;2022-08-20T10:55:50;33.30;48.40
14875;DHT22;7529;48.170;17.138;2022-08-20T11:00:04;32.40;48.30
14875;DHT22;7529;48.170;17.138;2022-08-20T11:04:18;31.80;48.70
14875;DHT22;7529;48.170;17.138;2022-08-20T11:08:30;31.30;48.90
14875;DHT22;7529;48.170;17.138;2022-08-20T11:12:41;30.70;49.00
14875;DHT22;7529;48.170;17.138;2022-08-20T11:16:53;29.90;49.40
14875;DHT22;7529;48.170;17.138;2022-08-20T11:21:05;29.60;49.80
14875;DHT22;7529;48.170;17.138;2022-08-20T11:25:18;29.40;50.10
14875;DHT22;7529;48.170;17.138;2022-08-20T11:29:29;29.20;50.20
14875;DHT22;7529;48.170;17.138;2022-08-20T11:33:41;29.00;50.50
14875;DHT22;7529;48.170;17.138;2022-08-20T11:37:54;28.80;50.60
14875;DHT22;7529;48.170;17.138;2022-08-20T11:42:06;28.70;50.80
14875;DHT22;7529;48.170;17.138;2022-08-20T11:46:18;28.50;51.00
14875;DHT22;7529;48.170;17.138;2022-08-20T11:50:29;28.30;51.20
14875;DHT22;7529;48.170;17.138;2022-08-20T11:54:41;28.30;51.30
14875;DHT22;7529;48.170;17.138;2022-08-20T11:58:54;28.40;51.30
14875;DHT22;7529;48.170;17.138;2022-08-20T12:03:06;28.40;51.30
14875;DHT22;7529;48.170;17.138;2022-08-20T12:07:20;28.40;51.20
14875;DHT22;7529;48.170;17.138;2022-08-20T12:11:32;28.70;51.20
14875;DHT22;7529;48.170;17.138;2022-08-20T12:15:44;28.90;51.00
14875;DHT22;7529;48.170;17.138;2022-08-20T12:19:57;29.00;50.80
14875;DHT22;7529;48.170;17.138;2022-08-20T12:24:10;29.60;50.60
14875;DHT22;7529;48.170;17.138;2022-08-20T12:28:23;29.80;50.20
14875;DHT22;7529;48.170;17.138;2022-08-20T12:32:35;30.00;50.10
14875;DHT22;7529;48.170;17.138;2022-08-20T12:36:46;30.20;49.90
14875;DHT22;7529;48.170;17.138;2022-08-20T12:40:58;30.60;49.50
14875;DHT22;7529;48.170;17.138;2022-08-20T12:45:10;31.10;49.00
14875;DHT22;7529;48.170;17.138;2022-08-20T12:49:22;31.30;48.50
14875;DHT22;7529;48.170;17.138;2022-08-20T12:53:33;31.30;48.20
14875;DHT22;7529;48.170;17.138;2022-08-20T12:57:48;31.70;47.90
14875;DHT22;7529;48.170;17.138;2022-08-20T13:10:33;34.00;46.10
14875;DHT22;7529;48.170;17.138;2022-08-20T13:14:46;36.20;43.30
14875;DHT22;7529;48.170;17.138;2022-08-20T13:18:57;34.60;44.00
14875;DHT22;7529;48.170;17.138;2022-08-20T13:23:09;33.90;44.30
14875;DHT22;7529;48.170;17.138;2022-08-20T13:27:20;33.10;44.90
14875;DHT22;7529;48.170;17.138;2022-08-20T13:31:33;32.00;44.90
14875;DHT22;7529;48.170;17.138;2022-08-20T13:35:44;31.10;45.50
14875;DHT22;7529;48.170;17.138;2022-08-20T13:39:57;30.50;46.10
14875;DHT22;7529;48.170;17.138;2022-08-20T13:44:09;29.80;46.50
14875;DHT22;7529;48.170;17.138;2022-08-20T13:48:21;29.10;47.10
14875;DHT22;7529;48.170;17.138;2022-08-20T13:52:32;28.70;47.60
14875;DHT22;7529;48.170;17.138;2022-08-20T13:56:44;28.40;48.00
14875;DHT22;7529;48.170;17.138;2022-08-20T14:00:56;28.40;48.20
14875;DHT22;7529;48.170;17.138;2022-08-20T14:05:08;28.40;48.30
14875;DHT22;7529;48.170;17.138;2022-08-20T14:09:20;28.20;48.40
14875;DHT22;7529;48.170;17.138;2022-08-20T14:13:32;28.20;48.50
14875;DHT22;7529;48.170;17.138;2022-08-20T14:17:50;28.10;48.60
14875;DHT22;7529;48.170;17.138;2022-08-20T14:22:03;28.00;48.70
14875;DHT22;7529;48.170;17.138;2022-08-20T14:26:14;27.90;48.90
14875;DHT22;7529;48.170;17.138;2022-08-20T14:30:28;27.70;49.00
14875;DHT22;7529;48.170;17.138;2022-08-20T14:34:40;27.40;49.40
14875;DHT22;7529;48.170;17.138;2022-08-20T14:38:52;27.20;49.70
14875;DHT22;7529;48.170;17.138;2022-08-20T14:43:03;26.90;50.50
14875;DHT22;7529;48.170;17.138;2022-08-20T14:47:22;26.50;50.90
14875;DHT22;7529;48.170;17.138;2022-08-20T14:51:38;26.30;50.80
14875;DHT22;7529;48.170;17.138;2022-08-20T14:55:51;26.30;50.90
14875;DHT22;7529;48.170;17.138;2022-08-20T15:00:04;26.30;51.10
14875;DHT22;7529;48.170;17.138;2022-08-20T15:04:20;26.10;51.40
14875;DHT22;7529;48.170;17.138;2022-08-20T15:08:31;26.00;51.60
14875;DHT22;7529;48.170;17.138;2022-08-20T15:12:45;25.90;51.70
14875;DHT22;7529;48.170;17.138;2022-08-20T15:16:57;25.90;52.00
14875;DHT22;7529;48.170;17.138;2022-08-20T15:21:08;25.80;52.10
14875;DHT22;7529;48.170;17.138;2022-08-20T15:25:25;25.70;52.30
14875;DHT22;7529;48.170;17.138;2022-08-20T15:29:39;25.60;52.50
14875;DHT22;7529;48.170;17.138;2022-08-20T15:33:52;25.70;52.60
14875;DHT22;7529;48.170;17.138;2022-08-20T15:38:04;25.50;53.00
14875;DHT22;7529;48.170;17.138;2022-08-20T15:42:18;25.40;53.40
14875;DHT22;7529;48.170;17.138;2022-08-20T15:46:30;25.20;53.70
14875;DHT22;7529;48.170;17.138;2022-08-20T15:51:17;25.10;54.00
14875;DHT22;7529;48.170;17.138;2022-08-20T15:55:43;24.90;54.60
14875;DHT22;7529;48.170;17.138;2022-08-20T16:00:23;24.70;54.90
14875;DHT22;7529;48.170;17.138;2022-08-20T16:09:50;24.30;55.70
14875;DHT22;7529;48.170;17.138;2022-08-20T16:13:52;24.10;56.30
14875;DHT22;7529;48.170;17.138;2022-08-20T16:18:15;24.00;57.00
14875;DHT22;7529;48.170;17.138;2022-08-20T16:22:30;23.80;57.30
14875;DHT22;7529;48.170;17.138;2022-08-20T16:27:13;23.60;57.70
14875;DHT22;7529;48.170;17.138;2022-08-20T16:31:52;23.40;58.50
14875;DHT22;7529;48.170;17.138;2022-08-20T16:36:14;23.30;58.50
14875;DHT22;7529;48.170;17.138;2022-08-20T16:40:45;23.20;58.90
14875;DHT22;7529;48.170;17.138;2022-08-20T16:44:58;23.20;59.40
14875;DHT22;7529;48.170;17.138;2022-08-20T16:49:11;23.10;59.40
14875;DHT22;7529;48.170;17.138;2022-08-20T16:53:25;23.10;59.90
14875;DHT22;7529;48.170;17.138;2022-08-20T16:57:37;22.90;60.20
14875;DHT22;7529;48.170;17.138;2022-08-20T17:02:09;22.80;60.80
14875;DHT22;7529;48.170;17.138;2022-08-20T17:06:32;22.70;61.40
14875;DHT22;7529;48.170;17.138;2022-08-20T17:15:26;22.40;62.20
14875;DHT22;7529;48.170;17.138;2022-08-20T17:19:51;22.30;63.20
14875;DHT22;7529;48.170;17.138;2022-08-20T17:24:19;22.20;63.80
14875;DHT22;7529;48.170;17.138;2022-08-20T17:28:36;22.20;64.50
14875;DHT22;7529;48.170;17.138;2022-08-20T17:37:28;22.00;65.20
14875;DHT22;7529;48.170;17.138;2022-08-20T17:41:46;21.90;65.50
14875;DHT22;7529;48.170;17.138;2022-08-20T17:46:03;21.80;66.10
14875;DHT22;7529;48.170;17.138;2022-08-20T17:50:20;21.80;66.40
14875;DHT22;7529;48.170;17.138;2022-08-20T17:54:41;21.70;66.90
14875;DHT22;7529;48.170;17.138;2022-08-20T17:59:01;21.80;67.40
14875;DHT22;7529;48.170;17.138;2022-08-20T18:03:22;21.70;67.30
14875;DHT22;7529;48.170;17.138;2022-08-20T18:07:50;21.70;67.50
14875;DHT22;7529;48.170;17.138;2022-08-20T18:21:44;21.60;68.30
14875;DHT22;7529;48.170;17.138;2022-08-20T18:26:28;21.60;68.30
14875;DHT22;7529;48.170;17.138;2022-08-20T18:31:01;21.60;68.90
14875;DHT22;7529;48.170;17.138;2022-08-20T18:35:35;21.60;69.10
14875;DHT22;7529;48.170;17.138;2022-08-20T18:39:49;21.60;69.10
14875;DHT22;7529;48.170;17.138;2022-08-20T18:44:11;21.50;68.90
14875;DHT22;7529;48.170;17.138;2022-08-20T18:48:25;21.50;69.20
14875;DHT22;7529;48.170;17.138;2022-08-20T18:52:39;21.40;69.20
14875;DHT22;7529;48.170;17.138;2022-08-20T18:57:29;21.40;69.60
14875;DHT22;7529;48.170;17.138;2022-08-20T19:01:46;21.30;70.40
14875;DHT22;7529;48.170;17.138;2022-08-20T19:15:02;21.10;71.40
14875;DHT22;7529;48.170;17.138;2022-08-20T19:19:25;21.00;71.60
14875;DHT22;7529;48.170;17.138;2022-08-20T19:23:38;21.00;71.90
14875;DHT22;7529;48.170;17.138;2022-08-20T19:27:52;20.90;71.90
14875;DHT22;7529;48.170;17.138;2022-08-20T19:32:07;20.90;72.10
14875;DHT22;7529;48.170;17.138;2022-08-20T19:36:22;20.90;72.50
14875;DHT22;7529;48.170;17.138;2022-08-20T19:40:36;20.80;72.60
14875;DHT22;7529;48.170;17.138;2022-08-20T19:44:56;20.80;73.40
14875;DHT22;7529;48.170;17.138;2022-08-20T19:49:23;20.70;74.00
14875;DHT22;7529;48.170;17.138;2022-08-20T19:53:43;20.60;74.10
14875;DHT22;7529;48.170;17.138;2022-08-20T19:57:59;20.60;74.90
14875;DHT22;7529;48.170;17.138;2022-08-20T20:02:14;20.60;75.20
14875;DHT22;7529;48.170;17.138;2022-08-20T20:06:30;20.50;75.40
14875;DHT22;7529;48.170;17.138;2022-08-20T20:10:52;20.50;75.40
14875;DHT22;7529;48.170;17.138;2022-08-20T20:15:06;20.50;76.00
14875;DHT22;7529;48.170;17.138;2022-08-20T20:19:18;20.50;76.70
14875;DHT22;7529;48.170;17.138;2022-08-20T20:23:30;20.40;76.90
14875;DHT22;7529;48.170;17.138;2022-08-20T20:27:52;20.40;77.10
14875;DHT22;7529;48.170;17.138;2022-08-20T20:32:19;20.50;77.60
14875;DHT22;7529;48.170;17.138;2022-08-20T20:36:41;20.40;77.90
14875;DHT22;7529;48.170;17.138;2022-08-20T20:40:58;20.40;77.90
14875;DHT22;7529;48.170;17.138;2022-08-20T20:45:18;20.40;78.50
14875;DHT22;7529;48.170;17.138;2022-08-20T20:49:33;20.40;78.90
14875;DHT22;7529;48.170;17.138;2022-08-20T20:53:48;20.40;79.20
14875;DHT22;7529;48.170;17.138;2022-08-20T20:58:01;20.30;79.50
14875;DHT22;7529;48.170;17.138;2022-08-20T21:02:14;20.30;80.00
14875;DHT22;7529;48.170;17.138;2022-08-20T21:06:27;20.30;80.40
14875;DHT22;7529;48.170;17.138;2022-08-20T21:10:40;20.20;80.80
14875;DHT22;7529;48.170;17.138;2022-08-20T21:14:52;20.20;81.50
14875;DHT22;7529;48.170;17.138;2022-08-20T21:19:05;20.20;82.10
14875;DHT22;7529;48.170;17.138;2022-08-20T21:23:17;20.10;82.50
14875;DHT22;7529;48.170;17.138;2022-08-20T21:27:29;20.00;83.10
14875;DHT22;7529;48.170;17.138;2022-08-20T21:31:43;20.00;83.50
14875;DHT22;7529;48.170;17.138;2022-08-20T21:35:56;19.90;83.70
14875;DHT22;7529;48.170;17.138;2022-08-20T21:40:08;20.00;84.10
14875;DHT22;7529;48.170;17.138;2022-08-20T21:44:27;19.90;84.80
14875;DHT22;7529;48.170;17.138;2022-08-20T21:48:39;19.90;85.40
14875;DHT22;7529;48.170;17.138;2022-08-20T21:52:51;19.90;85.60
14875;DHT22;7529;48.170;17.138;2022-08-20T21:57:10;19.80;85.80
14875;DHT22;7529;48.170;17.138;2022-08-20T22:01:25;19.80;86.00
14875;DHT22;7529;48.170;17.138;2022-08-20T22:05:37;19.70;86.10
14875;DHT22;7529;48.170;17.138;2022-08-20T22:09:49;19.70;86.50
14875;DHT22;7529;48.170;17.138;2022-08-20T22:14:00;19.70;86.70
14875;DHT22;7529;48.170;17.138;2022-08-20T22:18:12;19.70;86.90
14875;DHT22;7529;48.170;17.138;2022-08-20T22:22:23;19.60;87.10
14875;DHT22;7529;48.170;17.138;2022-08-20T22:26:38;19.60;87.70
14875;DHT22;7529;48.170;17.138;2022-08-20T22:30:50;19.60;88.00
14875;DHT22;7529;48.170;17.138;2022-08-20T22:35:03;19.60;88.10
14875;DHT22;7529;48.170;17.138;2022-08-20T22:39:15;19.50;88.30
14875;DHT22;7529;48.170;17.138;2022-08-20T22:43:26;19.50;88.20
14875;DHT22;7529;48.170;17.138;2022-08-20T22:47:38;19.50;88.70
14875;DHT22;7529;48.170;17.138;2022-08-20T22:51:50;19.50;88.30
14875;DHT22;7529;48.170;17.138;2022-08-20T22:56:01;19.50;88.60
14875;DHT22;7529;48.170;17.138;2022-08-20T23:00:15;19.50;88.90
14875;DHT22;7529;48.170;17.138;2022-08-20T23:04:30;19.50;88.70
14875;DHT22;7529;48.170;17.138;2022-08-20T23:08:43;19.60;88.80
14875;DHT22;7529;48.170;17.138;2022-08-20T23:12:55;19.60;89.00
14875;DHT22;7529;48.170;17.138;2022-08-20T23:17:13;19.60;88.80
14875;DHT22;7529;48.170;17.138;2022-08-20T23:21:27;19.60;88.80
14875;DHT22;7529;48.170;17.138;2022-08-20T23:25:40;19.70;88.80
14875;DHT22;7529;48.170;17.138;2022-08-20T23:29:51;19.60;88.80
14875;DHT22;7529;48.170;17.138;2022-08-20T23:34:03;19.60;89.30
14875;DHT22;7529;48.170;17.138;2022-08-20T23:38:14;19.50;89.70
14875;DHT22;7529;48.170;17.138;2022-08-20T23:42:26;19.40;90.20
14875;DHT22;7529;48.170;17.138;2022-08-20T23:46:38;19.30;90.50
14875;DHT22;7529;48.170;17.138;2022-08-20T23:50:50;19.20;90.80
14875;DHT22;7529;48.170;17.138;2022-08-20T23:55:01;19.10;91.00
14875;DHT22;7529;48.170;17.138;2022-08-20T23:59:13;19.10;91.30
